Time;durP1;ratioP1;P1;durP2;ratioP2;P2;SDS_P1;SDS_P2;PMS_P1;PMS_P2;Temp;Humidity;BMP_temperature;BMP_pressure;BME280_temperature;BME280_humidity;BME280_pressure;Samples;Min_cycle;Max_cycle;Signal;HPM_P1;HPM_P2
2022/09/27 00:00:14;;;;;;;9.90;7.75;;;;;;;;;;5013659;28;20032;-69
2022/09/27 00:02:41;;;;;;;6.63;5.95;;;;;;;;;;5014837;28;20030;-67
2022/09/27 00:05:08;;;;;;;5.80;4.78;;;;;;;;;;5014001;28;20683;-67
2022/09/27 00:07:35;;;;;;;6.82;5.10;;;;;;;;;;5013876;28;20049;-66
2022/09/27 00:10:02;;;;;;;3.88;2.90;;;;;;;;;;5013444;28;20030;-67
2022/09/27 00:12:29;;;;;;;3.15;2.63;;;;;;;;;;5014180;28;20191;-67
2022/09/27 00:14:57;;;;;;;3.03;2.72;;;;;;;;;;5015528;28;20478;-68
2022/09/27 00:17:24;;;;;;;4.40;3.47;;;;;;;;;;5015333;28;20041;-67
2022/09/27 00:19:51;;;;;;;3.70;3.30;;;;;;;;;;5014192;28;20398;-67
2022/09/27 00:22:18;;;;;;;3.70;3.15;;;;;;;;;;5015275;28;20040;-67
2022/09/27 00:24:45;;;;;;;3.92;2.92;;;;;;;;;;5015218;28;20025;-68
2022/09/27 00:27:12;;;;;;;3.97;1.80;;;;;;;;;;5015263;28;20438;-67
2022/09/27 00:29:39;;;;;;;4.40;2.05;;;;;;;;;;5015411;28;20053;-67
2022/09/27 00:32:07;;;;;;;2.72;2.00;;;;;;;;;;5015189;28;20022;-68
2022/09/27 00:34:34;;;;;;;3.90;1.73;;;;;;;;;;5015314;28;20425;-68
2022/09/27 00:37:01;;;;;;;2.97;1.90;;;;;;;;;;5013848;28;20034;-67
2022/09/27 00:39:28;;;;;;;3.65;2.20;;;;;;;;;;5014905;28;20410;-67
2022/09/27 00:41:56;;;;;;;3.75;2.08;;;;;;;;;;5014997;28;20041;-67
2022/09/27 00:44:27;;;;;;;3.13;2.15;;;;;;;;;;5014963;28;20053;-67
2022/09/27 00:47:06;;;;;;;2.65;1.88;;;;;;;;;;5013634;28;20045;-67
2022/09/27 00:49:36;;;;;;;2.95;1.98;;;;;;;;;;5014885;28;20478;-68
2022/09/27 00:52:29;;;;;;;4.95;2.72;;;;;;;;;;5014797;28;20026;-67
2022/09/27 00:54:58;;;;;;;3.95;2.92;;;;;;;;;;5006499;28;20030;-67
2022/09/27 00:57:26;;;;;;;6.28;4.13;;;;;;;;;;5014801;28;20022;-67
2022/09/27 00:59:58;;;;;;;6.55;5.00;;;;;;;;;;5014557;28;20030;-67
2022/09/27 01:02:25;;;;;;;7.57;4.65;;;;;;;;;;5014818;28;20097;-68
2022/09/27 01:04:54;;;;;;;4.90;3.90;;;;;;;;;;5013255;28;20032;-67
2022/09/27 01:07:21;;;;;;;6.50;4.00;;;;;;;;;;5014535;28;20042;-67
2022/09/27 01:09:48;;;;;;;5.30;3.35;;;;;;;;;;5014481;28;20030;-67
2022/09/27 01:12:33;;;;;;;7.60;3.47;;;;;;;;;;5014464;28;20049;-68
2022/09/27 01:15:00;;;;;;;6.00;3.00;;;;;;;;;;5014640;28;20026;-67
2022/09/27 01:17:43;;;;;;;3.40;3.10;;;;;;;;;;5014287;28;20029;-67
2022/09/27 01:20:22;;;;;;;5.07;3.08;;;;;;;;;;5014237;28;20101;-67
2022/09/27 01:22:58;;;;;;;3.30;2.95;;;;;;;;;;5013024;28;20033;-68
2022/09/27 01:25:39;;;;;;;4.97;3.03;;;;;;;;;;5014120;28;20390;-67
2022/09/27 01:28:13;;;;;;;3.40;3.10;;;;;;;;;;5014437;28;20029;-67
2022/09/27 01:30:48;;;;;;;3.42;2.50;;;;;;;;;;5014297;28;20473;-67
2022/09/27 01:33:53;;;;;;;3.00;2.60;;;;;;;;;;5014490;28;20026;-68
2022/09/27 01:36:59;;;;;;;3.95;3.10;;;;;;;;;;4992241;28;20109;-68
2022/09/27 01:39:38;;;;;;;4.13;2.80;;;;;;;;;;4915417;29;20051;-68
2022/09/27 01:42:25;;;;;;;5.75;2.63;;;;;;;;;;4947744;29;20036;-68
2022/09/27 01:45:01;;;;;;;3.33;2.65;;;;;;;;;;4995972;28;20533;-68
2022/09/27 01:47:43;;;;;;;3.63;2.78;;;;;;;;;;5013738;28;20033;-68
2022/09/27 01:50:13;;;;;;;4.32;2.70;;;;;;;;;;5012413;28;20056;-67
2022/09/27 01:52:46;;;;;;;4.05;2.20;;;;;;;;;;5013790;28;20025;-68
2022/09/27 01:55:15;;;;;;;2.13;1.83;;;;;;;;;;5013726;28;20033;-68
2022/09/27 01:57:45;;;;;;;3.78;1.85;;;;;;;;;;5013634;28;20061;-68
2022/09/27 02:00:12;;;;;;;2.22;1.65;;;;;;;;;;5013543;28;20065;-67
2022/09/27 02:02:44;;;;;;;2.20;1.80;;;;;;;;;;5013586;28;20022;-67
2022/09/27 02:05:16;;;;;;;6.10;3.38;;;;;;;;;;5012186;28;20049;-68
2022/09/27 02:07:51;;;;;;;4.57;2.65;;;;;;;;;;5013403;28;20407;-68
2022/09/27 02:10:21;;;;;;;5.95;2.65;;;;;;;;;;5013794;28;20033;-68
2022/09/27 02:12:58;;;;;;;3.22;2.70;;;;;;;;;;5012255;28;20033;-68
2022/09/27 02:15:26;;;;;;;5.55;2.88;;;;;;;;;;5013478;28;20478;-68
2022/09/27 02:17:58;;;;;;;5.38;2.80;;;;;;;;;;5013536;28;20026;-68
2022/09/27 02:20:39;;;;;;;6.47;3.45;;;;;;;;;;5013615;28;20022;-68
2022/09/27 02:23:05;;;;;;;;;;;;;;;;;;5013861;28;20026;-69
2022/09/27 02:25:41;;;;;;;4.30;2.58;;;;;;;;;;5013122;28;19916;-68
2022/09/27 02:28:14;;;;;;;5.43;2.72;;;;;;;;;;5013319;28;20030;-68
2022/09/27 02:30:41;;;;;;;4.70;2.63;;;;;;;;;;5013337;28;20022;-69
2022/09/27 02:33:09;;;;;;;4.63;2.97;;;;;;;;;;5013269;28;20018;-68
2022/09/27 02:35:36;;;;;;;4.07;2.47;;;;;;;;;;5012043;28;20433;-68
2022/09/27 02:38:04;;;;;;;4.55;2.72;;;;;;;;;;5013207;28;20077;-68
2022/09/27 02:40:33;;;;;;;5.03;2.75;;;;;;;;;;5011972;28;20113;-68
2022/09/27 02:43:01;;;;;;;4.85;2.70;;;;;;;;;;5013156;28;20101;-68
2022/09/27 02:45:46;;;;;;;5.00;3.20;;;;;;;;;;5013075;28;20385;-68
2022/09/27 02:48:23;;;;;;;6.32;3.25;;;;;;;;;;5013227;28;20018;-68
2022/09/27 02:51:08;;;;;;;6.53;3.03;;;;;;;;;;5011849;28;20474;-68
2022/09/27 02:53:41;;;;;;;4.50;2.90;;;;;;;;;;5013639;28;20351;-67
2022/09/27 02:56:20;;;;;;;5.32;3.30;;;;;;;;;;5013058;28;20045;-68
2022/09/27 02:59:07;;;;;;;4.78;3.13;;;;;;;;;;5013142;28;20033;-68
2022/09/27 03:01:45;;;;;;;5.00;3.22;;;;;;;;;;5012775;28;20490;-68
2022/09/27 03:04:23;;;;;;;6.13;3.05;;;;;;;;;;5012932;28;20032;-69
2022/09/27 03:06:52;;;;;;;2.85;2.60;;;;;;;;;;5012897;28;20525;-68
2022/09/27 03:09:23;;;;;;;5.47;3.10;;;;;;;;;;5013236;28;20374;-68
2022/09/27 03:11:52;;;;;;;3.60;2.30;;;;;;;;;;5012681;28;20072;-68
2022/09/27 03:14:19;;;;;;;2.90;2.20;;;;;;;;;;5012835;28;20112;-69
2022/09/27 03:16:46;;;;;;;3.40;2.65;;;;;;;;;;5012797;28;20335;-70
2022/09/27 03:19:13;;;;;;;3.67;2.17;;;;;;;;;;5012761;28;20029;-68
2022/09/27 03:21:40;;;;;;;5.00;2.35;;;;;;;;;;5012838;28;20391;-68
2022/09/27 03:24:07;;;;;;;3.30;2.35;;;;;;;;;;5012605;28;20022;-68
2022/09/27 03:26:34;;;;;;;3.30;2.33;;;;;;;;;;5012817;28;20021;-68
2022/09/27 03:29:01;;;;;;;2.92;2.17;;;;;;;;;;5012622;28;20022;-68
2022/09/27 03:31:29;;;;;;;4.45;2.65;;;;;;;;;;5012981;28;20446;-69
2022/09/27 03:33:56;;;;;;;3.45;2.42;;;;;;;;;;5012604;28;20026;-71
2022/09/27 03:36:23;;;;;;;5.13;2.53;;;;;;;;;;5014345;28;20099;-71
2022/09/27 03:38:50;;;;;;;4.00;2.67;;;;;;;;;;5016119;28;20490;-71
2022/09/27 03:41:17;;;;;;;4.63;3.00;;;;;;;;;;5016059;28;20045;-70
2022/09/27 03:43:45;;;;;;;5.55;2.95;;;;;;;;;;5016112;28;20026;-71
2022/09/27 03:46:12;;;;;;;6.38;2.70;;;;;;;;;;5016106;28;20022;-71
2022/09/27 03:48:40;;;;;;;3.58;2.15;;;;;;;;;;5015922;28;20025;-70
2022/09/27 03:51:08;;;;;;;4.78;2.33;;;;;;;;;;5016165;28;20014;-70
2022/09/27 03:53:35;;;;;;;4.90;2.70;;;;;;;;;;5016004;28;20026;-71
2022/09/27 03:56:02;;;;;;;3.63;2.33;;;;;;;;;;5014446;28;20080;-69
2022/09/27 03:58:29;;;;;;;3.47;2.20;;;;;;;;;;5015755;28;20032;-69
2022/09/27 04:00:57;;;;;;;4.03;1.95;;;;;;;;;;5015819;28;20022;-68
2022/09/27 04:03:25;;;;;;;3.00;2.10;;;;;;;;;;5015606;28;20026;-69
2022/09/27 04:05:56;;;;;;;3.50;1.95;;;;;;;;;;5015395;28;20111;-68
2022/09/27 04:08:23;;;;;;;2.17;1.63;;;;;;;;;;5015828;28;20125;-69
2022/09/27 04:10:50;;;;;;;3.70;1.65;;;;;;;;;;5015621;28;20097;-71
2022/09/27 04:13:17;;;;;;;4.47;2.30;;;;;;;;;;5015580;28;20022;-70
2022/09/27 04:15:44;;;;;;;2.45;1.90;;;;;;;;;;5015675;28;20034;-70
2022/09/27 04:18:11;;;;;;;2.95;1.80;;;;;;;;;;5014244;28;20482;-68
2022/09/27 04:20:38;;;;;;;4.05;2.05;;;;;;;;;;5015277;28;20032;-69
2022/09/27 04:23:06;;;;;;;2.10;1.90;;;;;;;;;;5015351;28;20026;-68
2022/09/27 04:25:33;;;;;;;2.35;1.92;;;;;;;;;;5013859;28;20474;-69
2022/09/27 04:28:01;;;;;;;3.55;2.17;;;;;;;;;;5015317;28;20045;-68
2022/09/27 04:30:29;;;;;;;3.40;1.80;;;;;;;;;;5013893;28;20040;-68
2022/09/27 04:32:56;;;;;;;3.78;2.15;;;;;;;;;;5015510;28;20462;-68
2022/09/27 04:38:09;;;;;;;3.03;2.20;;;;;;;;;;5015433;28;20036;-68
2022/09/27 04:40:36;;;;;;;6.97;2.13;;;;;;;;;;5014989;28;20033;-68
2022/09/27 04:43:03;;;;;;;4.25;2.28;;;;;;;;;;5015070;28;20022;-67
2022/09/27 04:45:31;;;;;;;1.95;1.70;;;;;;;;;;5015032;28;20121;-68
2022/09/27 04:47:58;;;;;;;3.28;1.80;;;;;;;;;;5014609;28;20037;-68
2022/09/27 04:50:25;;;;;;;3.08;2.00;;;;;;;;;;5014889;28;20090;-68
2022/09/27 04:52:53;;;;;;;2.33;1.73;;;;;;;;;;5014872;28;20382;-69
2022/09/27 04:55:22;;;;;;;3.20;1.65;;;;;;;;;;5014728;28;20164;-67
2022/09/27 04:57:49;;;;;;;2.00;1.80;;;;;;;;;;5013464;28;20438;-67
2022/09/27 05:00:17;;;;;;;3.00;1.60;;;;;;;;;;5014679;28;20375;-68
2022/09/27 05:02:44;;;;;;;2.45;1.70;;;;;;;;;;5013322;28;20379;-69
2022/09/27 05:05:11;;;;;;;4.18;1.70;;;;;;;;;;5013180;28;20542;-68
2022/09/27 05:07:39;;;;;;;4.55;1.60;;;;;;;;;;5013215;28;20143;-68
2022/09/27 05:10:07;;;;;;;3.00;1.58;;;;;;;;;;5013196;28;20102;-69
2022/09/27 05:12:34;;;;;;;3.70;1.40;;;;;;;;;;5013089;28;20077;-69
2022/09/27 05:15:02;;;;;;;2.55;1.60;;;;;;;;;;5012945;28;20029;-69
2022/09/27 05:17:29;;;;;;;4.28;1.80;;;;;;;;;;5014452;28;20152;-68
2022/09/27 05:19:56;;;;;;;2.88;1.70;;;;;;;;;;5014240;28;20033;-68
2022/09/27 05:22:23;;;;;;;1.90;1.20;;;;;;;;;;5014467;28;20517;-68
2022/09/27 05:24:50;;;;;;;3.97;1.77;;;;;;;;;;5014058;28;20022;-68
2022/09/27 05:27:19;;;;;;;2.10;1.70;;;;;;;;;;5012684;28;20494;-67
2022/09/27 05:29:46;;;;;;;2.35;1.60;;;;;;;;;;5014130;28;20093;-68
2022/09/27 05:32:14;;;;;;;4.18;1.80;;;;;;;;;;5013924;28;20021;-68
2022/09/27 05:34:41;;;;;;;3.13;1.50;;;;;;;;;;5012687;28;20037;-69
2022/09/27 05:37:09;;;;;;;4.43;1.77;;;;;;;;;;5012640;28;20402;-69
2022/09/27 05:39:36;;;;;;;2.83;1.70;;;;;;;;;;5013946;28;20371;-69
2022/09/27 05:42:06;;;;;;;2.20;1.73;;;;;;;;;;5013930;28;20119;-69
2022/09/27 05:44:34;;;;;;;3.45;1.77;;;;;;;;;;5014061;28;20022;-68
2022/09/27 05:47:04;;;;;;;1.90;1.48;;;;;;;;;;5012508;28;20022;-68
2022/09/27 05:49:32;;;;;;;2.63;1.85;;;;;;;;;;5013831;28;20049;-68
2022/09/27 05:51:59;;;;;;;5.68;2.00;;;;;;;;;;5012292;28;20113;-68
2022/09/27 05:54:28;;;;;;;4.75;1.95;;;;;;;;;;5013860;28;20097;-69
2022/09/27 05:56:59;;;;;;;5.50;1.95;;;;;;;;;;5012261;28;20026;-68
2022/09/27 05:59:27;;;;;;;2.17;1.60;;;;;;;;;;5012935;28;20058;-68
2022/09/27 06:01:54;;;;;;;2.00;1.60;;;;;;;;;;5013398;28;20026;-70
2022/09/27 06:04:21;;;;;;;2.85;1.65;;;;;;;;;;5012080;28;20509;-68
2022/09/27 06:06:48;;;;;;;3.17;2.00;;;;;;;;;;5011815;28;20050;-68
2022/09/27 06:09:16;;;;;;;4.88;1.88;;;;;;;;;;5013473;28;20390;-68
2022/09/27 06:11:45;;;;;;;3.78;1.80;;;;;;;;;;5013312;28;20477;-69
2022/09/27 06:14:12;;;;;;;4.70;1.50;;;;;;;;;;5013289;28;20429;-68
2022/09/27 06:16:40;;;;;;;3.35;1.30;;;;;;;;;;5011908;28;20026;-68
2022/09/27 06:19:07;;;;;;;2.53;1.95;;;;;;;;;;5011939;28;20021;-69
2022/09/27 06:21:35;;;;;;;1.88;1.50;;;;;;;;;;5013218;28;20049;-68
2022/09/27 06:24:02;;;;;;;1.80;1.35;;;;;;;;;;5011629;28;20030;-68
2022/09/27 06:26:30;;;;;;;3.17;1.60;;;;;;;;;;5013256;28;20022;-68
2022/09/27 06:28:57;;;;;;;2.97;1.50;;;;;;;;;;5013274;28;20026;-68
2022/09/27 06:31:24;;;;;;;3.17;1.70;;;;;;;;;;5011980;28;20018;-68
2022/09/27 06:33:51;;;;;;;6.95;1.92;;;;;;;;;;5011789;28;20030;-69
2022/09/27 06:36:18;;;;;;;4.95;2.10;;;;;;;;;;5011654;28;20397;-68
2022/09/27 06:38:47;;;;;;;4.00;1.60;;;;;;;;;;5012776;28;20026;-67
2022/09/27 06:41:14;;;;;;;4.40;1.85;;;;;;;;;;5013187;28;20045;-67
2022/09/27 06:43:41;;;;;;;4.20;1.50;;;;;;;;;;5012928;28;20029;-68
2022/09/27 06:46:08;;;;;;;3.67;1.65;;;;;;;;;;5013040;28;20034;-68
2022/09/27 06:48:38;;;;;;;9.73;2.50;;;;;;;;;;5012924;28;20028;-67
2022/09/27 06:51:05;;;;;;;3.28;1.38;;;;;;;;;;5012873;28;20028;-69
2022/09/27 06:53:33;;;;;;;6.43;1.40;;;;;;;;;;5011401;28;20021;-68
2022/09/27 06:56:03;;;;;;;5.25;1.85;;;;;;;;;;5011448;28;20022;-68
2022/09/27 07:01:16;;;;;;;7.93;1.73;;;;;;;;;;5013181;28;20088;-68
2022/09/27 07:03:44;;;;;;;4.43;1.58;;;;;;;;;;5012636;28;20029;-69
2022/09/27 07:06:17;;;;;;;5.07;1.48;;;;;;;;;;5010751;28;20029;-70
2022/09/27 07:08:44;;;;;;;2.47;1.00;;;;;;;;;;5011473;28;20022;-69
2022/09/27 07:11:12;;;;;;;2.53;1.20;;;;;;;;;;5015808;28;20014;-68
2022/09/27 07:13:41;;;;;;;4.00;1.45;;;;;;;;;;5016384;28;20032;-68
2022/09/27 07:16:12;;;;;;;2.70;1.10;;;;;;;;;;5015714;28;20025;-72
2022/09/27 07:18:39;;;;;;;3.90;1.42;;;;;;;;;;5014233;28;20026;-73
2022/09/27 07:21:07;;;;;;;2.92;1.38;;;;;;;;;;5014816;28;20050;-75
2022/09/27 07:23:35;;;;;;;4.40;1.10;;;;;;;;;;5015862;28;20018;-75
2022/09/27 07:26:04;;;;;;;1.65;1.10;;;;;;;;;;5015749;28;20079;-71
2022/09/27 07:28:31;;;;;;;3.13;1.20;;;;;;;;;;5014257;28;20044;-73
2022/09/27 07:30:58;;;;;;;3.10;1.00;;;;;;;;;;5014468;28;20026;-72
2022/09/27 07:33:26;;;;;;;4.22;1.23;;;;;;;;;;5016032;28;20018;-70
2022/09/27 07:35:53;;;;;;;2.92;1.00;;;;;;;;;;5016056;28;20040;-69
2022/09/27 07:38:20;;;;;;;3.05;1.60;;;;;;;;;;5014793;28;20100;-69
2022/09/27 07:40:47;;;;;;;3.30;1.65;;;;;;;;;;5016096;28;20045;-68
2022/09/27 07:43:14;;;;;;;3.53;1.20;;;;;;;;;;5016127;28;20390;-70
2022/09/27 07:45:41;;;;;;;3.22;1.50;;;;;;;;;;5014484;28;20021;-69
2022/09/27 07:48:10;;;;;;;5.38;1.50;;;;;;;;;;5015822;28;20026;-69
2022/09/27 07:50:38;;;;;;;3.90;1.65;;;;;;;;;;5014635;28;20032;-70
2022/09/27 07:53:05;;;;;;;4.82;2.90;;;;;;;;;;5014955;28;20113;-71
2022/09/27 07:55:32;;;;;;;2.20;1.60;;;;;;;;;;5015802;28;20072;-70
2022/09/27 07:58:04;;;;;;;11.00;3.30;;;;;;;;;;5015678;28;20102;-70
2022/09/27 08:00:31;;;;;;;4.47;1.90;;;;;;;;;;5015696;28;20029;-72
2022/09/27 08:02:58;;;;;;;23.48;15.55;;;;;;;;;;5014371;28;20037;-69
2022/09/27 08:05:25;;;;;;;5.45;3.10;;;;;;;;;;5014270;28;20118;-72
2022/09/27 08:07:56;;;;;;;19.45;13.45;;;;;;;;;;5015480;28;20486;-70
2022/09/27 08:10:26;;;;;;;;;;;;;;;;;;5016195;28;20076;-71
2022/09/27 08:12:53;;;;;;;4.78;2.97;;;;;;;;;;5015749;28;20357;-71
2022/09/27 08:15:20;;;;;;;4.88;2.33;;;;;;;;;;5015474;28;20045;-70
2022/09/27 08:17:47;;;;;;;8.52;4.47;;;;;;;;;;5014129;28;20488;-68
2022/09/27 08:20:14;;;;;;;7.53;6.68;;;;;;;;;;5015315;28;20033;-69
2022/09/27 08:22:42;;;;;;;6.15;3.15;;;;;;;;;;5014142;28;20105;-69
2022/09/27 08:25:10;;;;;;;48.47;43.65;;;;;;;;;;5014611;28;20037;-68
2022/09/27 08:27:37;;;;;;;109.85;99.03;;;;;;;;;;5015412;28;20033;-67
2022/09/27 08:30:04;;;;;;;13.65;10.57;;;;;;;;;;5015250;28;20045;-67
2022/09/27 08:32:31;;;;;;;6.78;5.60;;;;;;;;;;5015232;28;20022;-67
2022/09/27 08:34:58;;;;;;;3.42;2.53;;;;;;;;;;5015107;28;20026;-67
2022/09/27 08:37:26;;;;;;;11.95;10.50;;;;;;;;;;5015229;28;20026;-67
2022/09/27 08:39:53;;;;;;;6.28;3.55;;;;;;;;;;5015060;28;20128;-68
2022/09/27 08:42:20;;;;;;;4.97;3.63;;;;;;;;;;5013609;28;20028;-67
2022/09/27 08:44:56;;;;;;;5.82;2.00;;;;;;;;;;5014834;28;20390;-66
2022/09/27 08:47:33;;;;;;;2.40;1.45;;;;;;;;;;5013623;28;20497;-67
2022/09/27 08:50:04;;;;;;;3.17;1.50;;;;;;;;;;5013148;28;20387;-67
2022/09/27 08:52:42;;;;;;;3.47;1.58;;;;;;;;;;5012943;28;20542;-68
2022/09/27 08:55:21;;;;;;;5.38;2.38;;;;;;;;;;5014081;28;20049;-67
2022/09/27 08:57:53;;;;;;;3.17;1.50;;;;;;;;;;5014906;28;20093;-67
2022/09/27 09:00:21;;;;;;;4.75;1.80;;;;;;;;;;5014630;28;20474;-67
2022/09/27 09:02:48;;;;;;;4.40;1.42;;;;;;;;;;5014656;28;20117;-68
2022/09/27 09:05:19;;;;;;;2.50;1.30;;;;;;;;;;5013284;28;20560;-67
2022/09/27 09:07:58;;;;;;;4.57;1.30;;;;;;;;;;5014416;28;20513;-68
2022/09/27 09:13:24;;;;;;;1.95;1.40;;;;;;;;;;5014553;28;20095;-67
2022/09/27 09:16:04;;;;;;;5.38;1.42;;;;;;;;;;5013131;28;20367;-67
2022/09/27 09:18:49;;;;;;;4.90;1.50;;;;;;;;;;5013152;28;20030;-68
2022/09/27 09:21:30;;;;;;;4.45;1.50;;;;;;;;;;5013065;28;20033;-68
2022/09/27 09:24:00;;;;;;;4.40;2.00;;;;;;;;;;5013905;28;20032;-67
2022/09/27 09:26:38;;;;;;;5.85;2.53;;;;;;;;;;5012219;28;20025;-66
2022/09/27 09:29:09;;;;;;;5.88;2.00;;;;;;;;;;5012266;28;20033;-67
2022/09/27 09:31:42;;;;;;;6.47;2.47;;;;;;;;;;5012186;28;20101;-67
2022/09/27 09:34:27;;;;;;;6.97;2.35;;;;;;;;;;5011137;28;20021;-68
2022/09/27 09:36:57;;;;;;;4.45;2.13;;;;;;;;;;5010939;28;20529;-67
2022/09/27 09:39:45;;;;;;;3.60;1.80;;;;;;;;;;5012617;28;20028;-67
2022/09/27 09:42:24;;;;;;;2.13;1.35;;;;;;;;;;5012538;28;20038;-67
2022/09/27 09:44:58;;;;;;;3.25;1.90;;;;;;;;;;5012500;28;20104;-68
2022/09/27 09:47:43;;;;;;;2.88;1.83;;;;;;;;;;5014109;28;20386;-67
2022/09/27 09:50:18;;;;;;;3.50;1.77;;;;;;;;;;5012613;28;20022;-67
2022/09/27 09:53:05;;;;;;;3.45;1.75;;;;;;;;;;5013865;28;20382;-68
2022/09/27 09:55:34;;;;;;;3.50;1.60;;;;;;;;;;5009891;28;20516;-68
2022/09/27 09:58:02;;;;;;;3.60;1.70;;;;;;;;;;5012493;28;20030;-69
2022/09/27 10:00:29;;;;;;;3.33;2.20;;;;;;;;;;5013628;28;20481;-69
2022/09/27 10:19:21;;;;;;;4.60;2.13;;;;;;;;;;5158285;23;20082;-67
2022/09/27 10:21:48;;;;;;;;;;;;;;;;;;4994371;28;20034;-66
2022/09/27 10:24:16;;;;;;;6.68;1.98;;;;;;;;;;5008784;28;20008;-67
2022/09/27 10:26:44;;;;;;;5.18;1.98;;;;;;;;;;4993760;28;20093;-66
2022/09/27 10:29:20;;;;;;;6.57;2.72;;;;;;;;;;4993844;28;20026;-67
2022/09/27 10:31:49;;;;;;;6.05;2.40;;;;;;;;;;4993727;28;20026;-67
2022/09/27 10:34:28;;;;;;;4.95;2.05;;;;;;;;;;4993807;28;20026;-65
2022/09/27 10:37:03;;;;;;;6.68;2.40;;;;;;;;;;4993939;28;20029;-67
2022/09/27 10:39:30;;;;;;;4.68;2.15;;;;;;;;;;4976110;28;20038;-67
2022/09/27 10:41:58;;;;;;;4.93;2.65;;;;;;;;;;4993773;28;20026;-67
2022/09/27 10:44:25;;;;;;;4.85;2.20;;;;;;;;;;4993731;28;20026;-67
2022/09/27 10:47:06;;;;;;;8.10;2.67;;;;;;;;;;4997791;28;20023;-67
2022/09/27 10:49:43;;;;;;;6.85;2.70;;;;;;;;;;4997679;28;20053;-66
2022/09/27 10:52:28;;;;;;;6.43;2.67;;;;;;;;;;4997465;28;20398;-67
2022/09/27 10:55:00;;;;;;;6.38;3.30;;;;;;;;;;4997677;28;20030;-67
2022/09/27 10:57:29;;;;;;;9.50;3.17;;;;;;;;;;4979988;28;20397;-66
2022/09/27 10:59:58;;;;;;;9.05;3.40;;;;;;;;;;4995600;28;20030;-66
2022/09/27 11:02:31;;;;;;;7.40;3.22;;;;;;;;;;4997430;28;20030;-66
2022/09/27 11:05:04;;;;;;;5.93;3.08;;;;;;;;;;4997183;28;20485;-66
2022/09/27 11:07:31;;;;;;;8.90;2.85;;;;;;;;;;4979751;28;20046;-67
2022/09/27 11:10:02;;;;;;;8.25;3.97;;;;;;;;;;4997232;28;20092;-66
2022/09/27 11:12:29;;;;;;;;;;;;;;;;;;4997654;28;20023;-67
2022/09/27 11:14:58;;;;;;;9.00;3.35;;;;;;;;;;4997154;28;19913;-67
2022/09/27 11:17:32;;;;;;;8.25;3.17;;;;;;;;;;4996469;28;20085;-67
2022/09/27 11:20:28;;;;;;;7.50;3.60;;;;;;;;;;4996661;28;20038;-67
2022/09/27 11:22:55;;;;;;;8.52;4.22;;;;;;;;;;4976577;28;20117;-66
2022/09/27 11:25:38;;;;;;;10.75;4.07;;;;;;;;;;4996914;28;20494;-67
2022/09/27 11:28:05;;;;;;;11.80;4.80;;;;;;;;;;4979420;28;20037;-67
2022/09/27 11:30:52;;;;;;;7.82;4.07;;;;;;;;;;4996915;28;20049;-67
2022/09/27 11:33:38;;;;;;;7.55;3.65;;;;;;;;;;4996781;28;20023;-67
2022/09/27 11:36:11;;;;;;;6.63;3.10;;;;;;;;;;4996885;28;20509;-67
2022/09/27 11:38:42;;;;;;;8.90;3.50;;;;;;;;;;4996170;28;20022;-68
2022/09/27 11:41:30;;;;;;;6.10;3.25;;;;;;;;;;4995742;28;20026;-66
2022/09/27 11:44:13;;;;;;;7.93;3.08;;;;;;;;;;4978564;28;20072;-68
2022/09/27 11:46:41;;;;;;;7.03;3.50;;;;;;;;;;4995297;28;20022;-67
2022/09/27 11:49:08;;;;;;;7.05;3.50;;;;;;;;;;4996438;28;20374;-67
2022/09/27 11:51:36;;;;;;;5.13;3.05;;;;;;;;;;4996477;28;20474;-68
2022/09/27 11:54:12;;;;;;;8.23;3.78;;;;;;;;;;4978814;28;20022;-67
2022/09/27 11:56:39;;;;;;;4.28;2.83;;;;;;;;;;4995557;28;20401;-68
2022/09/27 11:59:06;;;;;;;8.57;3.60;;;;;;;;;;4996467;28;20019;-67
2022/09/27 12:01:39;;;;;;;5.75;3.10;;;;;;;;;;4978897;28;20029;-67
2022/09/27 12:04:21;;;;;;;6.85;3.95;;;;;;;;;;4996332;28;20038;-67
2022/09/27 12:06:55;;;;;;;6.15;3.70;;;;;;;;;;4996405;28;20029;-67
2022/09/27 12:09:25;;;;;;;5.68;3.53;;;;;;;;;;4978719;28;20019;-67
2022/09/27 12:12:04;;;;;;;5.75;4.30;;;;;;;;;;4996152;28;20153;-67
2022/09/27 12:14:43;;;;;;;8.20;4.28;;;;;;;;;;4996400;28;20049;-67
2022/09/27 12:17:13;;;;;;;7.38;3.63;;;;;;;;;;4996140;28;20097;-66
2022/09/27 12:19:42;;;;;;;7.05;4.10;;;;;;;;;;4995879;28;20050;-67
2022/09/27 12:22:12;;;;;;;7.28;4.10;;;;;;;;;;4994819;28;20084;-67
2022/09/27 12:24:39;;;;;;;;;;;;;;;;;;4995771;28;20108;-67
2022/09/27 12:27:26;;;;;;;10.15;4.28;;;;;;;;;;4995192;28;19906;-68
2022/09/27 12:29:55;;;;;;;8.75;4.57;;;;;;;;;;4978663;28;20153;-67
2022/09/27 12:32:32;;;;;;;6.78;5.03;;;;;;;;;;4978241;28;20105;-68
2022/09/27 12:35:10;;;;;;;9.13;4.65;;;;;;;;;;4995912;28;20157;-67
2022/09/27 12:37:37;;;;;;;8.27;4.60;;;;;;;;;;4978210;28;20517;-68
2022/09/27 12:40:14;;;;;;;7.82;4.55;;;;;;;;;;4995818;28;20027;-67
2022/09/27 12:42:43;;;;;;;7.90;4.32;;;;;;;;;;4995477;28;20027;-66
2022/09/27 12:45:14;;;;;;;9.25;4.25;;;;;;;;;;4995395;28;20022;-67
2022/09/27 12:47:40;;;;;;;;;;;;;;;;;;4978405;28;20105;-66
2022/09/27 12:50:19;;;;;;;10.50;4.80;;;;;;;;;;4995349;28;19913;-66
2022/09/27 12:52:50;;;;;;;9.18;4.40;;;;;;;;;;4977579;28;20393;-66
2022/09/27 12:55:35;;;;;;;11.00;4.50;;;;;;;;;;4995467;28;20501;-66
2022/09/27 12:58:21;;;;;;;10.52;4.40;;;;;;;;;;4995217;28;20478;-66
2022/09/27 13:01:07;;;;;;;8.68;4.53;;;;;;;;;;4995095;28;20110;-66
2022/09/27 13:03:49;;;;;;;9.45;4.47;;;;;;;;;;4995227;28;20110;-67
2022/09/27 13:06:34;;;;;;;9.73;5.00;;;;;;;;;;4995183;28;20033;-67
2022/09/27 13:09:01;;;;;;;10.43;5.65;;;;;;;;;;4977369;28;20022;-66
2022/09/27 13:11:28;;;;;;;12.68;4.80;;;;;;;;;;4994832;28;20170;-66
2022/09/27 13:13:57;;;;;;;10.85;5.13;;;;;;;;;;4977396;28;20026;-66
2022/09/27 13:16:24;;;;;;;9.43;4.93;;;;;;;;;;4993826;28;20022;-66
2022/09/27 13:18:54;;;;;;;6.88;4.32;;;;;;;;;;4975491;28;20064;-66
2022/09/27 13:21:40;;;;;;;9.35;4.00;;;;;;;;;;4992986;28;20018;-65
2022/09/27 13:24:27;;;;;;;9.15;4.80;;;;;;;;;;4993544;28;20018;-66
2022/09/27 13:26:55;;;;;;;13.02;5.05;;;;;;;;;;4994784;28;20105;-66
2022/09/27 13:29:27;;;;;;;7.95;4.07;;;;;;;;;;4994745;28;20019;-67
2022/09/27 13:31:54;;;;;;;7.35;3.95;;;;;;;;;;4994738;28;20382;-67
2022/09/27 13:34:39;;;;;;;7.97;4.63;;;;;;;;;;4994432;28;20117;-67
2022/09/27 13:37:24;;;;;;;6.40;4.35;;;;;;;;;;4994423;28;20032;-67
2022/09/27 13:40:10;;;;;;;8.65;4.63;;;;;;;;;;4994323;28;20026;-67
2022/09/27 13:42:41;;;;;;;8.23;3.95;;;;;;;;;;4993568;28;20081;-67
2022/09/27 13:45:28;;;;;;;8.13;4.53;;;;;;;;;;4994543;28;20054;-67
2022/09/27 13:47:57;;;;;;;6.97;4.75;;;;;;;;;;4994913;28;20407;-67
2022/09/27 13:50:29;;;;;;;10.55;5.28;;;;;;;;;;4994283;28;20034;-67
2022/09/27 13:52:58;;;;;;;8.85;4.60;;;;;;;;;;4993651;28;20492;-70
2022/09/27 13:55:42;;;;;;;6.10;4.85;;;;;;;;;;4974894;28;20097;-67
2022/09/27 13:58:17;;;;;;;8.43;4.93;;;;;;;;;;4992126;28;20022;-67
2022/09/27 14:00:45;;;;;;;8.82;4.97;;;;;;;;;;4974730;28;20364;-67
2022/09/27 14:03:14;;;;;;;10.05;5.13;;;;;;;;;;4992247;28;20097;-67
2022/09/27 14:05:46;;;;;;;7.85;5.47;;;;;;;;;;4992058;28;20428;-67
2022/09/27 14:08:23;;;;;;;6.22;4.85;;;;;;;;;;4992103;28;20103;-67
2022/09/27 14:10:51;;;;;;;8.82;6.00;;;;;;;;;;4993465;28;20029;-66
2022/09/27 14:13:19;;;;;;;8.13;5.13;;;;;;;;;;4993799;28;20050;-67
2022/09/27 14:15:48;;;;;;;8.48;5.18;;;;;;;;;;4994342;28;20353;-67
2022/09/27 14:18:16;;;;;;;7.50;5.07;;;;;;;;;;4993557;28;20476;-67
2022/09/27 14:20:45;;;;;;;10.05;4.80;;;;;;;;;;4993259;28;20430;-67
2022/09/27 14:23:20;;;;;;;9.38;4.88;;;;;;;;;;4993736;28;20046;-67
2022/09/27 14:25:48;;;;;;;9.23;5.20;;;;;;;;;;4993910;28;20022;-67
2022/09/27 14:28:20;;;;;;;7.43;4.40;;;;;;;;;;4994033;28;20043;-67
2022/09/27 14:30:47;;;;;;;7.97;4.60;;;;;;;;;;4975763;28;20482;-67
2022/09/27 14:33:30;;;;;;;9.35;4.82;;;;;;;;;;4992595;28;20077;-67
2022/09/27 14:38:42;;;;;;;9.85;5.10;;;;;;;;;;4993721;28;20073;-67
2022/09/27 14:41:09;;;;;;;10.70;5.25;;;;;;;;;;4993645;28;20105;-67
2022/09/27 14:43:42;;;;;;;9.75;5.50;;;;;;;;;;4993688;28;20034;-67
2022/09/27 14:46:23;;;;;;;15.73;5.93;;;;;;;;;;4993469;28;20022;-67
2022/09/27 14:48:52;;;;;;;11.07;5.03;;;;;;;;;;4993658;28;20022;-67
2022/09/27 14:51:20;;;;;;;12.10;5.60;;;;;;;;;;4993643;28;20026;-67
2022/09/27 14:53:49;;;;;;;10.63;5.30;;;;;;;;;;4992761;28;20022;-67
2022/09/27 14:56:21;;;;;;;12.57;6.20;;;;;;;;;;4992580;28;20474;-66
2022/09/27 14:58:51;;;;;;;10.25;5.90;;;;;;;;;;4993188;28;20030;-66
2022/09/27 15:01:19;;;;;;;9.88;5.35;;;;;;;;;;4993421;28;20030;-66
2022/09/27 15:03:48;;;;;;;16.25;5.88;;;;;;;;;;4993527;28;20098;-66
2022/09/27 15:06:16;;;;;;;9.65;5.20;;;;;;;;;;4993468;28;20478;-66
2022/09/27 15:08:46;;;;;;;9.70;5.88;;;;;;;;;;4993350;28;20018;-66
2022/09/27 15:11:13;;;;;;;11.43;6.07;;;;;;;;;;4993588;28;20378;-65
2022/09/27 15:13:41;;;;;;;9.57;6.35;;;;;;;;;;4993422;28;20026;-66
2022/09/27 15:16:09;;;;;;;7.40;5.47;;;;;;;;;;4975859;28;20026;-66
2022/09/27 15:18:41;;;;;;;8.75;5.53;;;;;;;;;;4993172;28;20047;-66
2022/09/27 15:21:13;;;;;;;8.02;5.82;;;;;;;;;;4975646;28;20023;-66
2022/09/27 15:23:44;;;;;;;7.93;6.10;;;;;;;;;;4993284;28;20438;-66
2022/09/27 15:26:14;;;;;;;12.82;6.85;;;;;;;;;;4993220;28;20389;-66
2022/09/27 15:28:46;;;;;;;10.40;6.65;;;;;;;;;;4975796;28;20030;-67
2022/09/27 15:31:13;;;;;;;9.32;6.95;;;;;;;;;;4994718;28;20026;-67
2022/09/27 15:33:41;;;;;;;9.77;8.00;;;;;;;;;;4997120;28;20045;-67